sensor_id;sensor_type;location;lat;lon;timestamp;P1;durP1;ratioP1;P2;durP2;ratioP2
19089;SDS011;9677;50.656;13.064;2022-07-25T00:00:30;9.80;;;8.90;;
19089;SDS011;9677;50.656;13.064;2022-07-25T00:02:59;9.70;;;8.80;;
19089;SDS011;9677;50.656;13.064;2022-07-25T00:05:28;9.77;;;8.87;;
19089;SDS011;9677;50.656;13.064;2022-07-25T00:08:03;9.30;;;8.50;;
19089;SDS011;9677;50.656;13.064;2022-07-25T00:10:32;9.80;;;8.90;;
19089;SDS011;9677;50.656;13.064;2022-07-25T00:13:00;9.53;;;8.63;;
19089;SDS011;9677;50.656;13.064;2022-07-25T00:15:29;9.93;;;8.93;;
19089;SDS011;9677;50.656;13.064;2022-07-25T00:17:58;9.80;;;8.90;;
19089;SDS011;9677;50.656;13.064;2022-07-25T00:20:27;10.07;;;9.07;;
19089;SDS011;9677;50.656;13.064;2022-07-25T00:22:55;9.53;;;8.63;;
19089;SDS011;9677;50.656;13.064;2022-07-25T00:25:23;9.73;;;8.83;;
19089;SDS011;9677;50.656;13.064;2022-07-25T00:27:52;9.70;;;8.80;;
19089;SDS011;9677;50.656;13.064;2022-07-25T00:30:20;9.77;;;8.80;;
19089;SDS011;9677;50.656;13.064;2022-07-25T00:32:50;9.63;;;8.73;;
19089;SDS011;9677;50.656;13.064;2022-07-25T00:35:18;9.90;;;8.90;;
19089;SDS011;9677;50.656;13.064;2022-07-25T00:37:47;9.77;;;8.87;;
19089;SDS011;9677;50.656;13.064;2022-07-25T00:40:15;9.50;;;8.60;;
19089;SDS011;9677;50.656;13.064;2022-07-25T00:42:43;9.70;;;8.70;;
19089;SDS011;9677;50.656;13.064;2022-07-25T00:45:12;9.40;;;8.50;;
19089;SDS011;9677;50.656;13.064;2022-07-25T00:47:40;9.60;;;8.70;;
19089;SDS011;9677;50.656;13.064;2022-07-25T00:50:10;9.77;;;8.87;;
19089;SDS011;9677;50.656;13.064;2022-07-25T00:52:38;9.77;;;8.87;;
19089;SDS011;9677;50.656;13.064;2022-07-25T00:55:07;10.10;;;9.10;;
19089;SDS011;9677;50.656;13.064;2022-07-25T00:57:35;9.83;;;8.90;;
19089;SDS011;9677;50.656;13.064;2022-07-25T01:00:04;9.60;;;8.70;;
19089;SDS011;9677;50.656;13.064;2022-07-25T01:02:35;10.00;;;9.10;;
19089;SDS011;9677;50.656;13.064;2022-07-25T01:05:04;9.77;;;8.87;;
19089;SDS011;9677;50.656;13.064;2022-07-25T01:07:37;9.73;;;8.83;;
19089;SDS011;9677;50.656;13.064;2022-07-25T01:10:06;9.93;;;9.00;;
19089;SDS011;9677;50.656;13.064;2022-07-25T01:12:43;9.77;;;8.87;;
19089;SDS011;9677;50.656;13.064;2022-07-25T01:15:15;9.77;;;8.87;;
19089;SDS011;9677;50.656;13.064;2022-07-25T01:17:44;9.63;;;8.73;;
19089;SDS011;9677;50.656;13.064;2022-07-25T01:20:14;10.10;;;9.10;;
19089;SDS011;9677;50.656;13.064;2022-07-25T01:22:44;9.70;;;8.80;;
19089;SDS011;9677;50.656;13.064;2022-07-25T01:25:13;10.27;;;9.27;;
19089;SDS011;9677;50.656;13.064;2022-07-25T01:27:42;9.70;;;8.80;;
19089;SDS011;9677;50.656;13.064;2022-07-25T01:30:12;10.00;;;9.00;;
19089;SDS011;9677;50.656;13.064;2022-07-25T01:32:42;9.93;;;8.93;;
19089;SDS011;9677;50.656;13.064;2022-07-25T01:35:12;9.73;;;8.83;;
19089;SDS011;9677;50.656;13.064;2022-07-25T01:37:42;9.60;;;8.70;;
19089;SDS011;9677;50.656;13.064;2022-07-25T01:40:11;9.80;;;8.90;;
19089;SDS011;9677;50.656;13.064;2022-07-25T01:42:40;9.60;;;8.70;;
19089;SDS011;9677;50.656;13.064;2022-07-25T01:45:09;10.43;;;9.37;;
19089;SDS011;9677;50.656;13.064;2022-07-25T01:47:39;9.70;;;8.80;;
19089;SDS011;9677;50.656;13.064;2022-07-25T01:50:08;9.70;;;8.80;;
19089;SDS011;9677;50.656;13.064;2022-07-25T01:52:38;9.70;;;8.80;;
19089;SDS011;9677;50.656;13.064;2022-07-25T01:55:07;9.97;;;8.97;;
19089;SDS011;9677;50.656;13.064;2022-07-25T01:57:36;10.10;;;9.10;;
19089;SDS011;9677;50.656;13.064;2022-07-25T02:00:14;9.83;;;8.93;;
19089;SDS011;9677;50.656;13.064;2022-07-25T02:02:44;10.77;;;9.10;;
19089;SDS011;9677;50.656;13.064;2022-07-25T02:05:13;9.83;;;8.93;;
19089;SDS011;9677;50.656;13.064;2022-07-25T02:07:43;9.83;;;8.93;;
19089;SDS011;9677;50.656;13.064;2022-07-25T02:10:12;9.90;;;9.00;;
19089;SDS011;9677;50.656;13.064;2022-07-25T02:12:40;10.27;;;9.20;;
19089;SDS011;9677;50.656;13.064;2022-07-25T02:15:09;10.20;;;9.20;;
19089;SDS011;9677;50.656;13.064;2022-07-25T02:17:37;9.73;;;8.83;;
19089;SDS011;9677;50.656;13.064;2022-07-25T02:20:06;10.00;;;9.10;;
19089;SDS011;9677;50.656;13.064;2022-07-25T02:22:36;9.97;;;8.97;;
19089;SDS011;9677;50.656;13.064;2022-07-25T02:25:06;9.80;;;8.80;;
19089;SDS011;9677;50.656;13.064;2022-07-25T02:27:35;10.13;;;9.17;;
19089;SDS011;9677;50.656;13.064;2022-07-25T02:30:04;9.90;;;9.00;;
19089;SDS011;9677;50.656;13.064;2022-07-25T02:32:33;10.00;;;8.93;;
19089;SDS011;9677;50.656;13.064;2022-07-25T02:35:02;10.00;;;9.00;;
19089;SDS011;9677;50.656;13.064;2022-07-25T02:37:38;10.00;;;9.10;;
19089;SDS011;9677;50.656;13.064;2022-07-25T02:40:09;9.80;;;8.90;;
19089;SDS011;9677;50.656;13.064;2022-07-25T02:42:38;10.10;;;9.10;;
19089;SDS011;9677;50.656;13.064;2022-07-25T02:45:07;10.10;;;9.10;;
19089;SDS011;9677;50.656;13.064;2022-07-25T02:47:36;9.93;;;9.03;;
19089;SDS011;9677;50.656;13.064;2022-07-25T02:50:05;10.13;;;9.13;;
19089;SDS011;9677;50.656;13.064;2022-07-25T02:52:40;9.80;;;8.90;;
19089;SDS011;9677;50.656;13.064;2022-07-25T02:55:10;9.60;;;8.70;;
19089;SDS011;9677;50.656;13.064;2022-07-25T02:57:41;10.17;;;9.07;;
19089;SDS011;9677;50.656;13.064;2022-07-25T03:00:10;10.27;;;9.07;;
19089;SDS011;9677;50.656;13.064;2022-07-25T03:02:40;10.30;;;9.30;;
19089;SDS011;9677;50.656;13.064;2022-07-25T03:05:10;10.20;;;9.20;;
19089;SDS011;9677;50.656;13.064;2022-07-25T03:07:41;9.70;;;8.80;;
19089;SDS011;9677;50.656;13.064;2022-07-25T03:10:12;10.00;;;9.00;;
19089;SDS011;9677;50.656;13.064;2022-07-25T03:12:41;9.80;;;8.90;;
19089;SDS011;9677;50.656;13.064;2022-07-25T03:15:11;9.83;;;8.93;;
19089;SDS011;9677;50.656;13.064;2022-07-25T03:17:41;10.67;;;9.67;;
19089;SDS011;9677;50.656;13.064;2022-07-25T03:20:09;10.20;;;9.20;;
19089;SDS011;9677;50.656;13.064;2022-07-25T03:22:38;10.33;;;9.33;;
19089;SDS011;9677;50.656;13.064;2022-07-25T03:25:07;10.10;;;9.10;;
19089;SDS011;9677;50.656;13.064;2022-07-25T03:27:48;10.27;;;9.27;;
19089;SDS011;9677;50.656;13.064;2022-07-25T03:30:17;10.40;;;9.40;;
19089;SDS011;9677;50.656;13.064;2022-07-25T03:32:45;10.40;;;9.40;;
19089;SDS011;9677;50.656;13.064;2022-07-25T03:35:14;10.33;;;9.33;;
19089;SDS011;9677;50.656;13.064;2022-07-25T03:37:42;10.10;;;9.20;;
19089;SDS011;9677;50.656;13.064;2022-07-25T03:42:41;9.97;;;9.07;;
19089;SDS011;9677;50.656;13.064;2022-07-25T03:45:11;9.93;;;9.03;;
19089;SDS011;9677;50.656;13.064;2022-07-25T03:47:39;10.33;;;9.40;;
19089;SDS011;9677;50.656;13.064;2022-07-25T03:50:08;10.40;;;9.40;;
19089;SDS011;9677;50.656;13.064;2022-07-25T03:52:36;10.50;;;9.50;;
19089;SDS011;9677;50.656;13.064;2022-07-25T03:55:05;10.03;;;9.13;;
19089;SDS011;9677;50.656;13.064;2022-07-25T03:57:35;10.20;;;9.20;;
19089;SDS011;9677;50.656;13.064;2022-07-25T04:00:04;9.80;;;8.90;;
19089;SDS011;9677;50.656;13.064;2022-07-25T04:02:36;10.23;;;9.23;;
19089;SDS011;9677;50.656;13.064;2022-07-25T04:05:06;10.43;;;9.43;;
19089;SDS011;9677;50.656;13.064;2022-07-25T04:07:36;10.40;;;9.40;;
19089;SDS011;9677;50.656;13.064;2022-07-25T04:10:05;10.23;;;9.23;;
19089;SDS011;9677;50.656;13.064;2022-07-25T04:12:35;10.13;;;9.13;;
19089;SDS011;9677;50.656;13.064;2022-07-25T04:15:04;10.50;;;9.50;;
19089;SDS011;9677;50.656;13.064;2022-07-25T04:17:34;10.20;;;9.20;;
19089;SDS011;9677;50.656;13.064;2022-07-25T04:20:07;11.00;;;9.67;;
19089;SDS011;9677;50.656;13.064;2022-07-25T04:22:36;10.73;;;9.70;;
19089;SDS011;9677;50.656;13.064;2022-07-25T04:25:11;10.60;;;9.57;;
19089;SDS011;9677;50.656;13.064;2022-07-25T04:27:40;10.40;;;9.40;;
19089;SDS011;9677;50.656;13.064;2022-07-25T04:30:09;10.80;;;9.70;;
19089;SDS011;9677;50.656;13.064;2022-07-25T04:32:49;10.27;;;9.27;;
19089;SDS011;9677;50.656;13.064;2022-07-25T04:35:19;10.33;;;9.33;;
19089;SDS011;9677;50.656;13.064;2022-07-25T04:37:48;12.70;;;9.37;;
19089;SDS011;9677;50.656;13.064;2022-07-25T04:40:37;10.70;;;9.70;;
19089;SDS011;9677;50.656;13.064;2022-07-25T04:43:06;10.43;;;9.43;;
19089;SDS011;9677;50.656;13.064;2022-07-25T04:45:35;10.10;;;9.20;;
19089;SDS011;9677;50.656;13.064;2022-07-25T04:48:03;10.40;;;9.40;;
19089;SDS011;9677;50.656;13.064;2022-07-25T04:50:34;10.03;;;9.03;;
19089;SDS011;9677;50.656;13.064;2022-07-25T04:53:03;10.57;;;9.57;;
19089;SDS011;9677;50.656;13.064;2022-07-25T04:55:31;10.70;;;9.70;;
19089;SDS011;9677;50.656;13.064;2022-07-25T04:58:01;10.27;;;9.20;;
19089;SDS011;9677;50.656;13.064;2022-07-25T05:00:30;10.50;;;9.50;;
19089;SDS011;9677;50.656;13.064;2022-07-25T05:02:58;10.70;;;9.60;;
19089;SDS011;9677;50.656;13.064;2022-07-25T05:05:27;10.50;;;9.50;;
19089;SDS011;9677;50.656;13.064;2022-07-25T05:07:57;10.27;;;9.20;;
19089;SDS011;9677;50.656;13.064;2022-07-25T05:10:26;10.47;;;9.47;;
19089;SDS011;9677;50.656;13.064;2022-07-25T05:12:56;10.30;;;9.30;;
19089;SDS011;9677;50.656;13.064;2022-07-25T05:15:24;10.90;;;9.80;;
19089;SDS011;9677;50.656;13.064;2022-07-25T05:17:53;10.40;;;9.40;;
19089;SDS011;9677;50.656;13.064;2022-07-25T05:20:21;10.23;;;9.23;;
19089;SDS011;9677;50.656;13.064;2022-07-25T05:22:50;11.20;;;10.00;;
19089;SDS011;9677;50.656;13.064;2022-07-25T05:25:20;10.40;;;9.40;;
19089;SDS011;9677;50.656;13.064;2022-07-25T05:27:48;10.50;;;9.50;;
19089;SDS011;9677;50.656;13.064;2022-07-25T05:30:17;10.20;;;9.30;;
19089;SDS011;9677;50.656;13.064;2022-07-25T05:32:45;10.37;;;9.37;;
19089;SDS011;9677;50.656;13.064;2022-07-25T05:35:14;10.67;;;9.63;;
19089;SDS011;9677;50.656;13.064;2022-07-25T05:37:42;10.20;;;9.20;;
19089;SDS011;9677;50.656;13.064;2022-07-25T05:40:11;10.70;;;9.60;;
19089;SDS011;9677;50.656;13.064;2022-07-25T05:42:41;10.90;;;9.47;;
19089;SDS011;9677;50.656;13.064;2022-07-25T05:45:09;10.20;;;9.20;;
19089;SDS011;9677;50.656;13.064;2022-07-25T05:47:38;10.33;;;9.33;;
19089;SDS011;9677;50.656;13.064;2022-07-25T05:50:06;11.17;;;9.97;;
19089;SDS011;9677;50.656;13.064;2022-07-25T05:52:35;10.93;;;9.83;;
19089;SDS011;9677;50.656;13.064;2022-07-25T05:55:04;10.20;;;9.20;;
19089;SDS011;9677;50.656;13.064;2022-07-25T05:57:33;10.33;;;9.37;;
19089;SDS011;9677;50.656;13.064;2022-07-25T06:00:05;10.30;;;9.30;;
19089;SDS011;9677;50.656;13.064;2022-07-25T06:02:34;10.50;;;9.50;;
19089;SDS011;9677;50.656;13.064;2022-07-25T06:05:03;10.20;;;9.20;;
19089;SDS011;9677;50.656;13.064;2022-07-25T06:07:32;10.67;;;9.67;;
19089;SDS011;9677;50.656;13.064;2022-07-25T06:10:00;10.33;;;9.30;;
19089;SDS011;9677;50.656;13.064;2022-07-25T06:12:28;10.50;;;9.50;;
19089;SDS011;9677;50.656;13.064;2022-07-25T06:15:02;10.47;;;9.47;;
19089;SDS011;9677;50.656;13.064;2022-07-25T06:17:37;10.43;;;9.40;;
19089;SDS011;9677;50.656;13.064;2022-07-25T06:20:06;10.37;;;9.37;;
19089;SDS011;9677;50.656;13.064;2022-07-25T06:22:35;10.43;;;9.43;;
19089;SDS011;9677;50.656;13.064;2022-07-25T06:25:04;10.50;;;9.50;;
19089;SDS011;9677;50.656;13.064;2022-07-25T06:27:33;10.47;;;9.47;;
19089;SDS011;9677;50.656;13.064;2022-07-25T06:30:05;10.50;;;9.50;;
19089;SDS011;9677;50.656;13.064;2022-07-25T06:32:45;10.40;;;9.40;;
19089;SDS011;9677;50.656;13.064;2022-07-25T06:35:14;15.30;;;9.70;;
19089;SDS011;9677;50.656;13.064;2022-07-25T06:37:42;10.67;;;9.57;;
19089;SDS011;9677;50.656;13.064;2022-07-25T06:40:10;10.90;;;9.80;;
19089;SDS011;9677;50.656;13.064;2022-07-25T06:42:40;10.30;;;9.30;;
19089;SDS011;9677;50.656;13.064;2022-07-25T06:45:12;10.83;;;9.73;;
19089;SDS011;9677;50.656;13.064;2022-07-25T06:47:42;11.10;;;10.00;;
19089;SDS011;9677;50.656;13.064;2022-07-25T06:50:12;10.43;;;9.43;;
19089;SDS011;9677;50.656;13.064;2022-07-25T06:52:46;10.60;;;9.60;;
19089;SDS011;9677;50.656;13.064;2022-07-25T06:55:15;10.37;;;9.40;;
19089;SDS011;9677;50.656;13.064;2022-07-25T06:57:43;10.80;;;9.80;;
19089;SDS011;9677;50.656;13.064;2022-07-25T07:00:13;10.83;;;9.73;;
19089;SDS011;9677;50.656;13.064;2022-07-25T07:02:46;10.43;;;9.33;;
19089;SDS011;9677;50.656;13.064;2022-07-25T07:05:17;10.80;;;9.80;;
19089;SDS011;9677;50.656;13.064;2022-07-25T07:07:46;10.60;;;9.60;;
19089;SDS011;9677;50.656;13.064;2022-07-25T07:10:14;10.50;;;9.50;;
19089;SDS011;9677;50.656;13.064;2022-07-25T07:12:43;10.53;;;9.53;;
19089;SDS011;9677;50.656;13.064;2022-07-25T07:15:13;10.67;;;9.57;;
19089;SDS011;9677;50.656;13.064;2022-07-25T07:17:42;10.97;;;9.87;;
19089;SDS011;9677;50.656;13.064;2022-07-25T07:20:10;10.83;;;9.73;;
19089;SDS011;9677;50.656;13.064;2022-07-25T07:22:42;10.40;;;9.40;;
19089;SDS011;9677;50.656;13.064;2022-07-25T07:25:13;10.60;;;9.60;;
19089;SDS011;9677;50.656;13.064;2022-07-25T07:27:45;10.57;;;9.57;;
19089;SDS011;9677;50.656;13.064;2022-07-25T07:30:15;11.00;;;9.90;;
19089;SDS011;9677;50.656;13.064;2022-07-25T07:32:50;10.67;;;9.60;;
19089;SDS011;9677;50.656;13.064;2022-07-25T07:35:19;10.53;;;9.53;;
19089;SDS011;9677;50.656;13.064;2022-07-25T07:37:47;10.50;;;9.50;;
19089;SDS011;9677;50.656;13.064;2022-07-25T07:40:15;10.77;;;9.77;;
19089;SDS011;9677;50.656;13.064;2022-07-25T07:42:45;10.70;;;9.60;;
19089;SDS011;9677;50.656;13.064;2022-07-25T07:45:17;10.77;;;9.67;;
19089;SDS011;9677;50.656;13.064;2022-07-25T07:47:48;10.83;;;9.83;;
19089;SDS011;9677;50.656;13.064;2022-07-25T07:50:19;10.40;;;9.40;;
19089;SDS011;9677;50.656;13.064;2022-07-25T07:52:51;10.80;;;9.80;;
19089;SDS011;9677;50.656;13.064;2022-07-25T07:55:20;10.90;;;9.80;;
19089;SDS011;9677;50.656;13.064;2022-07-25T07:58:07;10.30;;;9.30;;
19089;SDS011;9677;50.656;13.064;2022-07-25T08:00:37;10.97;;;9.87;;
19089;SDS011;9677;50.656;13.064;2022-07-25T08:03:06;10.73;;;9.63;;
19089;SDS011;9677;50.656;13.064;2022-07-25T08:05:36;10.73;;;9.70;;
19089;SDS011;9677;50.656;13.064;2022-07-25T08:08:07;10.87;;;9.87;;
19089;SDS011;9677;50.656;13.064;2022-07-25T08:10:38;11.10;;;10.00;;
19089;SDS011;9677;50.656;13.064;2022-07-25T08:13:12;10.73;;;9.63;;
19089;SDS011;9677;50.656;13.064;2022-07-25T08:15:44;10.77;;;9.77;;
19089;SDS011;9677;50.656;13.064;2022-07-25T08:18:14;10.83;;;9.83;;
19089;SDS011;9677;50.656;13.064;2022-07-25T08:20:43;10.77;;;9.77;;
19089;SDS011;9677;50.656;13.064;2022-07-25T08:23:12;10.60;;;9.60;;
19089;SDS011;9677;50.656;13.064;2022-07-25T08:25:42;10.93;;;9.83;;
19089;SDS011;9677;50.656;13.064;2022-07-25T08:28:12;10.67;;;9.60;;
19089;SDS011;9677;50.656;13.064;2022-07-25T08:30:40;10.80;;;9.70;;
19089;SDS011;9677;50.656;13.064;2022-07-25T08:33:11;10.50;;;9.50;;
19089;SDS011;9677;50.656;13.064;2022-07-25T08:35:44;10.87;;;9.77;;
19089;SDS011;9677;50.656;13.064;2022-07-25T08:38:14;10.67;;;9.67;;
19089;SDS011;9677;50.656;13.064;2022-07-25T08:40:43;10.57;;;9.57;;
19089;SDS011;9677;50.656;13.064;2022-07-25T08:43:12;10.80;;;9.80;;
19089;SDS011;9677;50.656;13.064;2022-07-25T08:45:43;10.60;;;9.60;;
19089;SDS011;9677;50.656;13.064;2022-07-25T08:48:17;10.53;;;9.47;;
19089;SDS011;9677;50.656;13.064;2022-07-25T08:50:48;10.80;;;9.80;;
19089;SDS011;9677;50.656;13.064;2022-07-25T08:53:18;10.67;;;9.67;;
19089;SDS011;9677;50.656;13.064;2022-07-25T08:56:03;10.70;;;9.70;;
19089;SDS011;9677;50.656;13.064;2022-07-25T08:58:41;10.80;;;9.80;;
19089;SDS011;9677;50.656;13.064;2022-07-25T09:01:10;11.27;;;10.17;;
19089;SDS011;9677;50.656;13.064;2022-07-25T09:03:41;11.00;;;9.90;;
19089;SDS011;9677;50.656;13.064;2022-07-25T09:06:15;10.87;;;9.87;;
19089;SDS011;9677;50.656;13.064;2022-07-25T09:08:54;10.90;;;9.90;;
19089;SDS011;9677;50.656;13.064;2022-07-25T09:11:26;11.00;;;10.00;;
19089;SDS011;9677;50.656;13.064;2022-07-25T09:14:00;10.70;;;9.70;;
19089;SDS011;9677;50.656;13.064;2022-07-25T09:16:34;10.67;;;9.67;;
19089;SDS011;9677;50.656;13.064;2022-07-25T09:19:08;11.10;;;10.07;;
19089;SDS011;9677;50.656;13.064;2022-07-25T09:21:39;10.83;;;9.83;;
19089;SDS011;9677;50.656;13.064;2022-07-25T09:24:12;10.90;;;9.90;;
19089;SDS011;9677;50.656;13.064;2022-07-25T09:26:45;10.70;;;9.70;;
19089;SDS011;9677;50.656;13.064;2022-07-25T09:29:16;11.13;;;10.13;;
19089;SDS011;9677;50.656;13.064;2022-07-25T09:31:51;11.43;;;10.33;;
19089;SDS011;9677;50.656;13.064;2022-07-25T09:34:35;11.00;;;10.00;;
19089;SDS011;9677;50.656;13.064;2022-07-25T09:37:06;11.10;;;10.10;;
19089;SDS011;9677;50.656;13.064;2022-07-25T09:39:39;11.00;;;9.90;;
19089;SDS011;9677;50.656;13.064;2022-07-25T09:42:13;10.90;;;9.87;;
19089;SDS011;9677;50.656;13.064;2022-07-25T09:44:58;10.80;;;9.80;;
19089;SDS011;9677;50.656;13.064;2022-07-25T09:47:30;11.10;;;10.00;;
19089;SDS011;9677;50.656;13.064;2022-07-25T09:50:05;10.90;;;9.90;;
19089;SDS011;9677;50.656;13.064;2022-07-25T09:52:34;11.00;;;10.00;;
19089;SDS011;9677;50.656;13.064;2022-07-25T09:55:05;10.77;;;9.77;;
19089;SDS011;9677;50.656;13.064;2022-07-25T09:57:35;10.53;;;9.47;;
19089;SDS011;9677;50.656;13.064;2022-07-25T10:00:05;10.57;;;9.57;;
19089;SDS011;9677;50.656;13.064;2022-07-25T10:02:39;10.90;;;9.83;;
19089;SDS011;9677;50.656;13.064;2022-07-25T10:05:16;10.87;;;9.77;;
19089;SDS011;9677;50.656;13.064;2022-07-25T10:08:11;10.63;;;9.53;;
19089;SDS011;9677;50.656;13.064;2022-07-25T10:10:41;10.40;;;9.40;;
19089;SDS011;9677;50.656;13.064;2022-07-25T10:13:10;10.40;;;9.40;;
19089;SDS011;9677;50.656;13.064;2022-07-25T10:15:42;10.80;;;9.80;;
19089;SDS011;9677;50.656;13.064;2022-07-25T10:18:13;10.70;;;9.70;;
19089;SDS011;9677;50.656;13.064;2022-07-25T10:20:45;10.53;;;9.53;;
19089;SDS011;9677;50.656;13.064;2022-07-25T10:23:20;10.90;;;9.80;;
19089;SDS011;9677;50.656;13.064;2022-07-25T10:26:00;10.73;;;9.73;;
19089;SDS011;9677;50.656;13.064;2022-07-25T10:28:38;10.40;;;9.40;;
19089;SDS011;9677;50.656;13.064;2022-07-25T10:31:16;10.67;;;9.67;;
19089;SDS011;9677;50.656;13.064;2022-07-25T10:33:50;10.60;;;9.60;;
19089;SDS011;9677;50.656;13.064;2022-07-25T10:36:23;10.93;;;9.90;;
19089;SDS011;9677;50.656;13.064;2022-07-25T10:38:55;10.70;;;9.70;;
19089;SDS011;9677;50.656;13.064;2022-07-25T10:41:26;10.70;;;9.60;;
19089;SDS011;9677;50.656;13.064;2022-07-25T10:43:56;10.93;;;9.90;;
19089;SDS011;9677;50.656;13.064;2022-07-25T10:46:28;11.13;;;10.03;;
19089;SDS011;9677;50.656;13.064;2022-07-25T10:49:00;11.20;;;10.10;;
19089;SDS011;9677;50.656;13.064;2022-07-25T10:51:33;11.10;;;10.00;;
19089;SDS011;9677;50.656;13.064;2022-07-25T10:54:11;10.33;;;9.33;;
19089;SDS011;9677;50.656;13.064;2022-07-25T10:56:50;10.90;;;9.90;;
19089;SDS011;9677;50.656;13.064;2022-07-25T10:59:31;10.73;;;9.77;;
19089;SDS011;9677;50.656;13.064;2022-07-25T11:02:01;11.03;;;9.83;;
19089;SDS011;9677;50.656;13.064;2022-07-25T11:04:32;10.90;;;9.90;;
19089;SDS011;9677;50.656;13.064;2022-07-25T11:07:08;10.70;;;9.70;;
19089;SDS011;9677;50.656;13.064;2022-07-25T11:09:39;10.60;;;9.60;;
19089;SDS011;9677;50.656;13.064;2022-07-25T11:12:12;10.43;;;9.50;;
19089;SDS011;9677;50.656;13.064;2022-07-25T11:14:42;10.50;;;9.60;;
19089;SDS011;9677;50.656;13.064;2022-07-25T11:17:12;10.90;;;9.90;;
19089;SDS011;9677;50.656;13.064;2022-07-25T11:19:42;11.07;;;9.97;;
19089;SDS011;9677;50.656;13.064;2022-07-25T11:22:21;10.80;;;9.70;;
19089;SDS011;9677;50.656;13.064;2022-07-25T11:24:50;10.70;;;9.70;;
19089;SDS011;9677;50.656;13.064;2022-07-25T11:27:19;10.67;;;9.70;;
19089;SDS011;9677;50.656;13.064;2022-07-25T11:29:50;10.73;;;9.70;;
19089;SDS011;9677;50.656;13.064;2022-07-25T11:32:19;10.80;;;9.80;;
19089;SDS011;9677;50.656;13.064;2022-07-25T11:34:49;10.50;;;9.57;;
19089;SDS011;9677;50.656;13.064;2022-07-25T11:37:20;10.53;;;9.53;;
19089;SDS011;9677;50.656;13.064;2022-07-25T11:39:49;10.77;;;9.77;;
19089;SDS011;9677;50.656;13.064;2022-07-25T11:42:21;11.10;;;10.10;;
19089;SDS011;9677;50.656;13.064;2022-07-25T11:44:52;11.17;;;10.03;;
19089;SDS011;9677;50.656;13.064;2022-07-25T11:47:22;11.13;;;10.03;;
19089;SDS011;9677;50.656;13.064;2022-07-25T11:49:53;10.90;;;9.90;;
19089;SDS011;9677;50.656;13.064;2022-07-25T11:52:26;11.00;;;10.00;;
19089;SDS011;9677;50.656;13.064;2022-07-25T11:54:57;10.57;;;9.63;;
19089;SDS011;9677;50.656;13.064;2022-07-25T11:57:28;10.57;;;9.57;;
19089;SDS011;9677;50.656;13.064;2022-07-25T11:59:57;10.93;;;9.93;;
19089;SDS011;9677;50.656;13.064;2022-07-25T12:02:34;10.80;;;9.80;;
19089;SDS011;9677;50.656;13.064;2022-07-25T12:05:03;10.80;;;9.70;;
19089;SDS011;9677;50.656;13.064;2022-07-25T12:07:43;10.67;;;9.67;;
19089;SDS011;9677;50.656;13.064;2022-07-25T12:10:13;10.93;;;9.90;;
19089;SDS011;9677;50.656;13.064;2022-07-25T12:12:45;10.37;;;9.37;;
19089;SDS011;9677;50.656;13.064;2022-07-25T12:15:17;10.30;;;9.30;;
19089;SDS011;9677;50.656;13.064;2022-07-25T12:17:48;10.80;;;9.80;;
19089;SDS011;9677;50.656;13.064;2022-07-25T12:20:19;10.70;;;9.70;;
19089;SDS011;9677;50.656;13.064;2022-07-25T12:22:53;10.47;;;9.47;;
19089;SDS011;9677;50.656;13.064;2022-07-25T12:25:25;10.47;;;9.47;;
19089;SDS011;9677;50.656;13.064;2022-07-25T12:27:56;10.47;;;9.50;;
19089;SDS011;9677;50.656;13.064;2022-07-25T12:30:26;9.97;;;9.07;;
19089;SDS011;9677;50.656;13.064;2022-07-25T12:32:56;10.13;;;9.20;;
19089;SDS011;9677;50.656;13.064;2022-07-25T12:35:26;10.40;;;9.40;;
19089;SDS011;9677;50.656;13.064;2022-07-25T12:37:56;10.20;;;9.30;;
19089;SDS011;9677;50.656;13.064;2022-07-25T12:40:25;10.43;;;9.43;;
19089;SDS011;9677;50.656;13.064;2022-07-25T12:42:53;10.27;;;9.20;;
19089;SDS011;9677;50.656;13.064;2022-07-25T12:45:22;10.50;;;9.50;;
19089;SDS011;9677;50.656;13.064;2022-07-25T12:47:51;10.50;;;9.47;;
19089;SDS011;9677;50.656;13.064;2022-07-25T12:50:19;10.20;;;9.30;;
19089;SDS011;9677;50.656;13.064;2022-07-25T12:52:51;10.27;;;9.27;;
19089;SDS011;9677;50.656;13.064;2022-07-25T12:55:21;10.10;;;9.20;;
19089;SDS011;9677;50.656;13.064;2022-07-25T12:57:49;9.70;;;8.87;;
19089;SDS011;9677;50.656;13.064;2022-07-25T13:00:18;10.60;;;9.60;;
19089;SDS011;9677;50.656;13.064;2022-07-25T13:02:49;10.07;;;9.17;;
19089;SDS011;9677;50.656;13.064;2022-07-25T13:05:21;10.27;;;9.27;;
19089;SDS011;9677;50.656;13.064;2022-07-25T13:07:50;10.30;;;9.40;;
19089;SDS011;9677;50.656;13.064;2022-07-25T13:10:18;10.73;;;9.70;;
19089;SDS011;9677;50.656;13.064;2022-07-25T13:12:48;10.70;;;9.20;;
19089;SDS011;9677;50.656;13.064;2022-07-25T13:15:17;10.00;;;9.10;;
19089;SDS011;9677;50.656;13.064;2022-07-25T13:17:48;9.80;;;8.90;;
19089;SDS011;9677;50.656;13.064;2022-07-25T13:20:17;9.83;;;8.93;;
19089;SDS011;9677;50.656;13.064;2022-07-25T13:22:45;10.10;;;9.20;;
19089;SDS011;9677;50.656;13.064;2022-07-25T13:25:13;9.90;;;9.00;;
19089;SDS011;9677;50.656;13.064;2022-07-25T13:27:43;10.17;;;9.27;;
19089;SDS011;9677;50.656;13.064;2022-07-25T13:30:13;10.17;;;9.20;;
19089;SDS011;9677;50.656;13.064;2022-07-25T13:32:42;9.80;;;8.90;;
19089;SDS011;9677;50.656;13.064;2022-07-25T13:35:10;10.43;;;9.50;;
19089;SDS011;9677;50.656;13.064;2022-07-25T13:37:45;9.90;;;8.90;;
19089;SDS011;9677;50.656;13.064;2022-07-25T13:40:14;12.97;;;9.40;;
19089;SDS011;9677;50.656;13.064;2022-07-25T13:42:43;9.97;;;9.07;;
19089;SDS011;9677;50.656;13.064;2022-07-25T13:45:12;10.70;;;9.20;;
19089;SDS011;9677;50.656;13.064;2022-07-25T13:47:40;10.50;;;9.50;;
19089;SDS011;9677;50.656;13.064;2022-07-25T13:50:09;10.30;;;9.40;;
19089;SDS011;9677;50.656;13.064;2022-07-25T13:52:37;10.20;;;9.20;;
19089;SDS011;9677;50.656;13.064;2022-07-25T13:55:06;10.00;;;9.10;;
19089;SDS011;9677;50.656;13.064;2022-07-25T13:57:35;10.17;;;9.27;;
19089;SDS011;9677;50.656;13.064;2022-07-25T14:00:06;10.10;;;9.20;;
19089;SDS011;9677;50.656;13.064;2022-07-25T14:02:36;10.03;;;9.13;;
19089;SDS011;9677;50.656;13.064;2022-07-25T14:05:04;10.10;;;9.20;;
19089;SDS011;9677;50.656;13.064;2022-07-25T14:07:34;10.27;;;9.20;;
19089;SDS011;9677;50.656;13.064;2022-07-25T14:10:03;10.30;;;9.30;;
19089;SDS011;9677;50.656;13.064;2022-07-25T14:12:34;10.10;;;9.20;;
19089;SDS011;9677;50.656;13.064;2022-07-25T14:15:06;10.10;;;9.20;;
19089;SDS011;9677;50.656;13.064;2022-07-25T14:17:36;10.07;;;9.17;;
19089;SDS011;9677;50.656;13.064;2022-07-25T14:20:05;10.00;;;9.10;;
19089;SDS011;9677;50.656;13.064;2022-07-25T14:22:35;10.10;;;9.17;;
19089;SDS011;9677;50.656;13.064;2022-07-25T14:25:05;10.30;;;9.40;;
19089;SDS011;9677;50.656;13.064;2022-07-25T14:27:34;9.87;;;8.97;;
19089;SDS011;9677;50.656;13.064;2022-07-25T14:30:03;10.17;;;9.17;;
19089;SDS011;9677;50.656;13.064;2022-07-25T14:32:35;10.17;;;9.27;;
19089;SDS011;9677;50.656;13.064;2022-07-25T14:35:04;10.03;;;9.13;;
19089;SDS011;9677;50.656;13.064;2022-07-25T14:37:33;12.63;;;9.13;;
19089;SDS011;9677;50.656;13.064;2022-07-25T14:40:02;10.17;;;9.20;;
19089;SDS011;9677;50.656;13.064;2022-07-25T14:42:32;10.40;;;9.43;;
19089;SDS011;9677;50.656;13.064;2022-07-25T14:45:00;9.77;;;8.90;;
19089;SDS011;9677;50.656;13.064;2022-07-25T14:47:30;10.07;;;9.17;;
19089;SDS011;9677;50.656;13.064;2022-07-25T14:49:58;9.73;;;8.83;;
19089;SDS011;9677;50.656;13.064;2022-07-25T14:52:27;10.13;;;9.23;;
19089;SDS011;9677;50.656;13.064;2022-07-25T14:54:55;9.67;;;8.77;;
19089;SDS011;9677;50.656;13.064;2022-07-25T14:57:24;10.47;;;9.47;;